Accueil
METAR-TAF:

METAR-TAF

Aéroports :

Aérodrome de Tahoua

Tahoua, Niger

latitude: 14-54N, longitude: 005-15E, altitude: 386 m

Observation

Le bulletin a été fait il y a 10 heures et 5 minutes, à 18:00 UTC
Vent 7 kt de sud
Température 33°C
Humidité 49%
Pression 1014 hPa
Visibilité 10 km ou plus
Quelques nuages à une hauteur de 3000 ft

METAR: DRRT 231800Z 18007KT 9999 FEW030 33/21 Q1014

Heure: 05:05 (04:05 UTC)


TAF: absent

Observations et prévisions météorologiques de plus de 4000 aéroports (messages METAR et TAF).

Les stations disponibles sont représentées par des disques jaunes et rouges sur la carte.

Passer la souris dessus pour voir le nom de la station.

Cliquer dessus pour voir les observations et prévisions météorologiques.

Pour changer de carte: cliquez sur les boutons verts avec une croix noire pour zoomer, sur le bouton vert avec un tiret pour effectuer un zoom arrière, ou sur les flèches vertes pour les cartes adjacentes.


METAR-TAF: